Time;durP1;ratioP1;P1;durP2;ratioP2;P2;SDS_P1;SDS_P2;PMS_P1;PMS_P2;Temp;Humidity;BMP_temperature;BMP_pressure;BME280_temperature;BME280_humidity;BME280_pressure;Samples;Min_cycle;Max_cycle;Signal;HPM_P1;HPM_P2
2021/09/28 00:02:15;;;;;;;;;0.00;0.00;;;;;16.18;60.07;101961.31;5062525;28;46660;-77
2021/09/28 00:04:41;;;;;;;;;0.00;0.00;;;;;16.32;60.25;101999.03;5078150;28;46077;-76
2021/09/28 00:07:09;;;;;;;;;0.75;0.50;;;;;16.05;60.12;101953.34;5061219;28;45255;-76
2021/09/28 00:09:34;;;;;;;;;0.00;0.00;;;;;16.03;60.39;101948.97;5078305;27;45467;-76
2021/09/28 00:11:59;;;;;;;;;0.00;0.00;;;;;15.89;60.58;101936.59;5086305;27;47520;-76
2021/09/28 00:14:25;;;;;;;;;1.00;1.00;;;;;15.72;60.73;101920.78;5081471;28;45523;-77
2021/09/28 00:16:51;;;;;;;;;0.00;0.00;;;;;16.13;61.06;101994.53;5081497;28;45394;-77
2021/09/28 00:19:16;;;;;;;;;0.00;0.00;;;;;15.76;60.96;101934.78;5081336;28;45426;-76
2021/09/28 00:21:42;;;;;;;;;0.25;0.25;;;;;15.92;61.11;101962.00;5081363;28;48293;-76
2021/09/28 00:24:08;;;;;;;;;1.50;0.50;;;;;15.98;61.17;101977.81;5082809;27;45300;-76
2021/09/28 00:26:33;;;;;;;;;1.25;0.75;;;;;16.05;61.17;101994.50;5082616;27;45492;-77
2021/09/28 00:28:59;;;;;;;;;0.50;0.50;;;;;16.09;61.36;102001.53;5081130;27;45627;-77
2021/09/28 00:31:24;;;;;;;;;0.00;0.00;;;;;16.05;61.39;101997.13;5097979;27;46594;-76
2021/09/28 00:33:49;;;;;;;;;0.00;0.00;;;;;15.84;61.74;101985.59;5081080;27;45390;-76
2021/09/28 00:36:15;;;;;;;;;1.00;1.00;;;;;15.96;61.66;102008.47;5082803;27;45292;-77
2021/09/28 00:38:40;;;;;;;;;3.50;1.00;;;;;15.94;61.36;102000.56;5081568;28;45335;-76
2021/09/28 00:41:06;;;;;;;;;0.00;0.00;;;;;16.07;60.71;102019.03;5082215;28;45236;-76
2021/09/28 00:43:48;;;;;;;;;1.50;0.25;;;;;15.96;61.44;101996.19;5080888;28;45374;-76
2021/09/28 00:46:15;;;;;;;;;0.00;0.00;;;;;15.94;61.36;101984.78;5080987;28;45400;-76
2021/09/28 00:48:41;;;;;;;;;0.00;0.00;;;;;16.08;61.52;102010.28;5081193;28;45383;-76
2021/09/28 00:51:07;;;;;;;;;0.25;0.25;;;;;16.00;61.08;101996.22;5080650;27;47228;-77
2021/09/28 00:53:33;;;;;;;;;2.25;0.75;;;;;15.79;61.66;101966.28;5080873;28;45625;-76
2021/09/28 00:55:59;;;;;;;;;1.00;1.00;;;;;15.88;61.72;101981.22;5081253;28;45296;-77
2021/09/28 00:58:24;;;;;;;;;1.00;0.00;;;;;15.91;61.60;101986.50;5081327;28;45205;-77
2021/09/28 01:00:51;;;;;;;;;2.00;1.00;;;;;15.92;61.61;102004.00;5080573;28;47148;-77
2021/09/28 01:03:18;;;;;;;;;0.00;0.00;;;;;15.63;61.54;101971.47;5080784;28;45336;-77
2021/09/28 01:05:43;;;;;;;;;0.00;0.00;;;;;15.81;61.96;101990.81;5082135;27;45332;-77
2021/09/28 01:08:09;;;;;;;;;0.00;0.00;;;;;15.79;61.83;101988.19;5082711;27;45296;-77
2021/09/28 01:10:35;;;;;;;;;3.75;2.00;;;;;15.72;61.85;101983.78;5080708;28;47166;-77
2021/09/28 01:13:01;;;;;;;;;0.00;0.00;;;;;15.69;61.86;101991.63;5064038;27;45235;-76
2021/09/28 01:15:26;;;;;;;;;0.50;0.50;;;;;15.49;62.31;101952.13;5060768;28;45282;-77
2021/09/28 01:17:51;;;;;;;;;0.00;0.00;;;;;15.54;62.40;101988.03;5069142;28;45326;-77
2021/09/28 01:20:17;;;;;;;;;0.25;0.25;;;;;15.53;62.54;101995.88;5080781;28;46961;-77
2021/09/28 01:22:42;;;;;;;;;0.00;0.00;;;;;15.30;62.63;101963.34;5068774;27;45219;-77
2021/09/28 01:25:08;;;;;;;;;0.00;0.00;;;;;15.42;62.96;101978.31;5062693;28;45492;-76
2021/09/28 01:27:38;;;;;;;;;1.25;0.75;;;;;15.28;62.64;101958.94;5063084;28;45428;-77
2021/09/28 01:30:05;;;;;;;;;0.25;0.00;;;;;15.35;63.13;101966.00;5064903;28;45472;-77
2021/09/28 01:32:30;;;;;;;;;0.00;0.00;;;;;15.45;62.85;101983.56;5063377;28;45231;-76
2021/09/28 01:34:56;;;;;;;;;0.00;0.00;;;;;15.59;63.01;102003.78;5075955;28;45263;-77
2021/09/28 01:37:21;;;;;;;;;0.00;0.00;;;;;15.41;63.07;101971.28;5084509;27;45452;-77
2021/09/28 01:39:46;;;;;;;;;2.00;0.00;;;;;15.50;63.25;101985.34;5083498;28;48152;-76
2021/09/28 01:42:12;;;;;;;;;1.50;0.00;;;;;15.37;63.17;101977.38;5083361;28;45359;-77
2021/09/28 01:44:37;;;;;;;;;0.00;0.00;;;;;15.08;63.02;101949.16;5083077;28;45349;-76
2021/09/28 01:47:03;;;;;;;;;1.00;1.00;;;;;15.27;63.06;101989.53;5083651;28;45372;-76
2021/09/28 01:49:28;;;;;;;;;1.00;1.00;;;;;15.07;63.28;101969.25;5083344;28;48027;-76
2021/09/28 01:51:53;;;;;;;;;0.00;0.00;;;;;15.25;63.32;101990.41;5085046;27;45283;-76
2021/09/28 01:54:19;;;;;;;;;0.00;0.00;;;;;15.16;63.71;101972.81;5085061;27;45337;-77
2021/09/28 01:56:44;;;;;;;;;0.00;0.00;;;;;15.16;63.60;101975.44;5084019;28;45617;-76
2021/09/28 01:59:09;;;;;;;;;0.00;0.00;;;;;15.22;63.41;101979.88;5084940;27;45217;-77
2021/09/28 02:01:37;;;;;;;;;0.00;0.00;;;;;15.10;63.62;101973.63;5084735;27;45294;-77
2021/09/28 02:04:03;;;;;;;;;0.00;0.00;;;;;15.00;63.78;101956.03;5083016;28;45425;-76
2021/09/28 02:06:29;;;;;;;;;0.00;0.00;;;;;14.90;63.20;101944.59;5082801;28;45400;-76
2021/09/28 02:08:55;;;;;;;;;0.00;0.00;;;;;15.07;63.59;101971.00;5069627;28;46411;-76
2021/09/28 02:11:20;;;;;;;;;0.00;0.00;;;;;15.08;63.77;101967.50;5075101;28;45323;-76
2021/09/28 02:13:46;;;;;;;;;0.00;0.00;;;;;15.14;63.52;101971.91;5081766;27;45359;-76
2021/09/28 02:16:12;;;;;;;;;1.50;1.50;;;;;14.97;63.66;101940.31;5083813;27;45257;-76
2021/09/28 02:18:37;;;;;;;;;0.00;0.00;;;;;15.04;63.78;101950.84;5083403;28;45516;-76
2021/09/28 02:21:03;;;;;;;;;1.00;0.00;;;;;15.03;63.58;101949.09;5081203;28;45539;-76
2021/09/28 02:23:29;;;;;;;;;1.00;1.00;;;;;14.80;63.82;101934.00;5083337;28;45327;-76
2021/09/28 02:25:54;;;;;;;;;0.00;0.00;;;;;14.91;64.06;101969.94;5083476;28;45234;-76
2021/09/28 02:28:20;;;;;;;;;0.00;0.00;;;;;14.79;64.17;101958.47;5082960;28;48111;-76
2021/09/28 02:30:46;;;;;;;;;1.00;0.75;;;;;14.54;64.25;101925.84;5099723;27;45400;-76
2021/09/28 02:33:11;;;;;;;;;0.00;0.00;;;;;14.69;64.47;101940.84;5083115;28;45401;-76
2021/09/28 02:35:37;;;;;;;;;0.00;0.00;;;;;14.81;64.38;101956.75;5083089;28;45560;-76
2021/09/28 02:38:03;;;;;;;;;0.00;0.00;;;;;14.80;64.37;101951.50;5082855;28;47336;-76
2021/09/28 02:40:28;;;;;;;;;0.00;0.00;;;;;14.73;64.12;101939.16;5082703;28;45405;-76
2021/09/28 02:42:54;;;;;;;;;0.00;0.00;;;;;14.88;64.42;101962.94;5082875;28;45393;-76
2021/09/28 02:45:20;;;;;;;;;0.75;0.75;;;;;14.89;64.37;101955.97;5084331;28;45536;-76
2021/09/28 02:47:45;;;;;;;;;0.00;0.00;;;;;14.82;64.36;101942.78;5083706;28;45473;-76
2021/09/28 02:50:12;;;;;;;;;0.00;0.00;;;;;14.81;64.39;101940.13;5082431;28;45274;-76
2021/09/28 02:52:37;;;;;;;;;0.00;0.00;;;;;14.83;64.23;101927.94;5084121;27;45440;-76
2021/09/28 02:55:04;;;;;;;;;0.00;0.00;;;;;14.98;64.10;101939.44;5084275;27;45473;-76
2021/09/28 02:57:30;;;;;;;;;0.00;0.00;;;;;14.81;64.38;101912.19;5084053;27;45399;-76
2021/09/28 02:59:55;;;;;;;;;1.00;1.00;;;;;14.84;64.22;101906.09;5099913;27;45650;-76
2021/09/28 03:02:20;;;;;;;;;0.00;0.00;;;;;14.96;64.01;101936.81;5083672;27;45338;-76
2021/09/28 03:04:46;;;;;;;;;0.00;0.00;;;;;14.88;64.12;101923.59;5082450;28;45382;-76
2021/09/28 03:07:11;;;;;;;;;0.00;0.00;;;;;14.92;64.22;101916.66;5099308;27;47028;-76
2021/09/28 03:09:36;;;;;;;;;0.00;0.00;;;;;14.44;64.03;101838.41;5083856;27;45355;-76
2021/09/28 03:12:03;;;;;;;;;1.00;0.50;;;;;14.75;63.98;101885.88;5083523;27;45440;-76
2021/09/28 03:14:29;;;;;;;;;0.00;0.00;;;;;14.87;64.07;101914.00;5082598;28;45282;-76
2021/09/28 03:16:54;;;;;;;;;0.00;0.00;;;;;14.81;63.91;101906.94;5081900;28;47008;-76
2021/09/28 03:19:20;;;;;;;;;0.00;0.00;;;;;14.81;64.07;101899.09;5083577;27;45332;-76
2021/09/28 03:21:46;;;;;;;;;0.00;0.00;;;;;14.82;63.93;101902.56;5083162;27;45365;-76
2021/09/28 03:24:11;;;;;;;;;0.00;0.00;;;;;15.00;64.09;101935.06;5081983;28;45299;-76
2021/09/28 03:26:37;;;;;;;;;1.00;1.00;;;;;14.98;64.10;101928.94;5083249;27;45446;-76
2021/09/28 03:29:02;;;;;;;;;0.00;0.00;;;;;14.91;64.06;101928.88;5081861;28;45350;-76
2021/09/28 03:31:27;;;;;;;;;0.00;0.00;;;;;14.97;64.10;101933.31;5082687;27;45532;-76
2021/09/28 03:33:53;;;;;;;;;0.00;0.00;;;;;14.98;64.33;101926.31;5081288;28;45325;-76
2021/09/28 03:36:19;;;;;;;;;0.00;0.00;;;;;14.90;63.63;101915.75;5081508;28;48003;-76
2021/09/28 03:38:44;;;;;;;;;1.50;1.50;;;;;14.95;64.03;101925.41;5082690;28;45252;-76
2021/09/28 03:41:09;;;;;;;;;0.00;0.00;;;;;14.93;64.15;101911.44;5083022;27;45302;-76
2021/09/28 03:43:35;;;;;;;;;0.00;0.00;;;;;14.88;63.66;101897.38;5082969;27;45629;-76
2021/09/28 03:46:00;;;;;;;;;0.50;0.50;;;;;14.90;64.26;101902.66;5080340;28;46926;-76
2021/09/28 03:48:26;;;;;;;;;0.00;0.00;;;;;14.86;63.99;101893.00;5081204;28;45619;-76
2021/09/28 03:50:51;;;;;;;;;0.00;0.00;;;;;14.97;64.04;101900.97;5081421;28;45462;-76
2021/09/28 03:53:16;;;;;;;;;0.00;0.00;;;;;14.78;63.77;101864.97;5082258;28;45317;-77
2021/09/28 03:55:42;;;;;;;;;0.00;0.00;;;;;15.01;64.22;101902.75;5081224;28;47408;-76
2021/09/28 03:58:08;;;;;;;;;0.00;0.00;;;;;14.84;63.86;101866.78;5081523;28;45375;-76
2021/09/28 04:00:36;;;;;;;;;0.00;0.00;;;;;14.81;63.88;101869.38;5081094;28;45350;-76
2021/09/28 04:03:05;;;;;;;;;0.00;0.00;;;;;15.04;64.01;101911.50;5082054;27;45260;-76
2021/09/28 04:05:31;;;;;;;;;0.00;0.00;;;;;15.12;64.00;101902.81;5080843;28;46836;-76
2021/09/28 04:07:56;;;;;;;;;0.00;0.00;;;;;15.11;63.74;101898.47;5082423;27;45473;-76
2021/09/28 04:10:22;;;;;;;;;0.00;0.00;;;;;15.09;63.85;101894.97;5082753;27;45396;-76
2021/09/28 04:12:47;;;;;;;;;0.00;0.00;;;;;15.19;63.76;101921.25;5066725;27;45558;-75
2021/09/28 04:15:13;;;;;;;;;1.00;1.00;;;;;15.24;63.83;101930.91;5061816;28;46593;-76
2021/09/28 04:17:40;;;;;;;;;0.00;0.00;;;;;15.18;63.48;101918.63;5060907;28;45450;-75
2021/09/28 04:20:06;;;;;;;;;1.00;1.00;;;;;15.24;63.46;101931.78;5062365;28;45310;-75
2021/09/28 04:22:32;;;;;;;;;0.75;0.75;;;;;15.09;63.61;101908.94;5060945;28;45256;-76
2021/09/28 04:24:57;;;;;;;;;3.00;1.25;;;;;15.12;63.63;101915.94;5060549;28;48251;-75
2021/09/28 04:27:23;;;;;;;;;0.00;0.00;;;;;14.92;63.51;101883.44;5058633;28;45314;-75
2021/09/28 04:29:48;;;;;;;;;2.00;1.00;;;;;14.94;63.67;101902.69;5058935;28;45338;-75
2021/09/28 04:32:13;;;;;;;;;2.00;0.00;;;;;15.19;63.81;101936.09;5058881;28;45410;-75
2021/09/28 04:34:39;;;;;;;;;1.00;0.00;;;;;15.13;63.43;101913.34;5060490;28;45296;-76
2021/09/28 04:37:05;;;;;;;;;0.00;0.00;;;;;15.18;63.56;101930.00;5061267;28;45271;-76
2021/09/28 04:39:31;;;;;;;;;0.00;0.00;;;;;15.10;63.40;101923.78;5060379;28;45449;-76
2021/09/28 04:41:57;;;;;;;;;0.00;0.00;;;;;15.11;63.83;101928.19;5060124;28;45476;-76
2021/09/28 04:44:22;;;;;;;;;0.00;0.00;;;;;15.02;63.75;101915.00;5059238;28;47280;-76
2021/09/28 04:46:48;;;;;;;;;0.50;0.00;;;;;15.07;64.06;101921.19;5059723;28;45719;-76
2021/09/28 04:49:13;;;;;;;;;0.00;0.00;;;;;15.03;63.74;101901.91;5061281;28;45306;-76
2021/09/28 04:51:38;;;;;;;;;0.00;0.00;;;;;14.90;63.94;101874.69;5063565;28;45371;-76
2021/09/28 04:54:04;;;;;;;;;0.00;0.00;;;;;15.23;64.01;101930.03;5061520;28;45338;-76
2021/09/28 04:56:30;;;;;;;;;2.00;1.00;;;;;15.13;63.72;101909.84;5061494;28;45334;-76
2021/09/28 04:58:55;;;;;;;;;0.00;0.00;;;;;15.05;63.86;101886.19;5064462;28;45335;-76
2021/09/28 05:01:21;;;;;;;;;2.25;0.00;;;;;15.26;64.16;101924.81;5068663;28;45527;-76
2021/09/28 05:03:46;;;;;;;;;0.00;0.00;;;;;15.22;64.13;101909.06;5064697;28;45275;-76
2021/09/28 05:06:12;;;;;;;;;0.00;0.00;;;;;15.26;63.67;101922.22;5063555;28;45648;-77
2021/09/28 05:08:38;;;;;;;;;0.00;0.00;;;;;15.31;63.80;101936.22;5065199;28;45276;-77
2021/09/28 05:11:03;;;;;;;;;0.75;0.00;;;;;15.21;64.15;101921.28;5084434;27;45573;-77
2021/09/28 05:13:29;;;;;;;;;0.00;0.00;;;;;15.18;63.99;101914.25;5074964;28;46242;-77
2021/09/28 05:15:54;;;;;;;;;0.00;0.00;;;;;15.16;63.83;101905.50;5073552;28;45370;-77
2021/09/28 05:18:19;;;;;;;;;0.00;0.00;;;;;15.16;64.04;101918.59;5073986;28;45342;-77
2021/09/28 05:20:45;;;;;;;;;0.75;0.75;;;;;14.92;64.27;101907.03;5080601;28;45602;-77
2021/09/28 05:23:10;;;;;;;;;0.00;0.00;;;;;14.82;64.64;101897.31;5082876;28;47337;-77
2021/09/28 05:25:36;;;;;;;;;0.00;0.00;;;;;15.07;64.32;101940.38;5085247;27;45366;-77
2021/09/28 05:28:01;;;;;;;;;0.50;0.50;;;;;15.02;64.54;101938.59;5084719;27;45429;-75
2021/09/28 05:30:27;;;;;;;;;0.00;0.00;;;;;14.98;64.72;101932.47;5083799;27;45407;-77
2021/09/28 05:32:52;;;;;;;;;0.00;0.00;;;;;14.68;64.47;101884.94;5070689;28;47053;-77
2021/09/28 05:35:19;;;;;;;;;0.00;0.00;;;;;14.87;64.88;101914.00;5085038;28;45440;-80
2021/09/28 05:37:44;;;;;;;;;0.00;0.00;;;;;15.05;64.40;101936.91;5069908;27;45411;-77
2021/09/28 05:40:10;;;;;;;;;2.25;1.00;;;;;14.94;64.21;101913.19;5062908;28;45321;-80
2021/09/28 05:42:36;;;;;;;;;0.00;0.00;;;;;15.09;64.59;101934.31;5063629;28;46862;-77
2021/09/28 05:45:02;;;;;;;;;1.00;1.00;;;;;15.08;64.60;101925.53;5063733;28;45287;-80
2021/09/28 05:47:27;;;;;;;;;1.00;0.75;;;;;14.79;64.38;101857.97;5077828;28;45290;-74
2021/09/28 05:49:53;;;;;;;;;0.00;0.00;;;;;14.95;64.19;101893.09;5084314;27;45440;-75
2021/09/28 05:52:19;;;;;;;;;1.00;0.00;;;;;15.08;64.50;101909.81;5083069;27;46029;-75
2021/09/28 05:54:48;;;;;;;;;1.50;0.00;;;;;14.85;64.70;101868.53;5075797;28;45637;-75
2021/09/28 05:57:15;;;;;;;;;1.00;1.00;;;;;14.98;64.59;101887.00;5062627;28;45368;-75
2021/09/28 05:59:41;;;;;;;;;0.50;0.50;;;;;14.98;64.78;101887.88;5075160;28;45582;-79
2021/09/28 06:02:07;;;;;;;;;0.00;0.00;;;;;15.01;64.57;101908.00;5080988;28;45190;-77
2021/09/28 06:04:34;;;;;;;;;2.00;2.00;;;;;14.85;64.73;101886.03;5077203;28;45381;-78
2021/09/28 06:07:01;;;;;;;;;2.00;2.00;;;;;14.69;64.54;101849.13;5068982;27;45271;-77
2021/09/28 06:09:27;;;;;;;;;0.00;0.00;;;;;14.88;64.62;101886.91;5069312;28;45542;-76
2021/09/28 06:11:52;;;;;;;;;1.50;0.00;;;;;15.02;64.80;101923.75;5073312;28;47378;-77
2021/09/28 06:14:18;;;;;;;;;0.75;0.75;;;;;15.07;64.40;101913.31;5063494;28;45231;-76
2021/09/28 06:16:43;;;;;;;;;1.00;1.00;;;;;15.07;64.53;101911.53;5064351;28;45518;-77
2021/09/28 06:19:08;;;;;;;;;0.00;0.00;;;;;14.97;64.57;101887.88;5060383;28;45581;-76
2021/09/28 06:21:34;;;;;;;;;1.50;1.00;;;;;15.03;64.44;101894.03;5077568;28;46738;-76
2021/09/28 06:23:59;;;;;;;;;0.75;0.75;;;;;15.14;64.25;101899.38;5080683;28;45466;-75
2021/09/28 06:26:25;;;;;;;;;1.00;1.00;;;;;15.22;64.54;101923.03;5083491;27;45495;-75
2021/09/28 06:28:50;;;;;;;;;1.25;1.25;;;;;15.08;64.16;101896.69;5082175;28;45284;-76
2021/09/28 06:31:15;;;;;;;;;0.25;0.25;;;;;15.24;64.16;101917.78;5083177;27;45326;-75
2021/09/28 06:33:41;;;;;;;;;1.00;1.00;;;;;14.97;64.21;101864.28;5083406;27;45247;-75
2021/09/28 06:36:06;;;;;;;;;0.00;0.00;;;;;15.33;64.07;101904.75;5083843;27;45297;-75
2021/09/28 06:38:31;;;;;;;;;0.75;0.75;;;;;15.35;64.11;101907.41;5083752;27;45250;-74
2021/09/28 06:40:58;;;;;;;;;1.00;1.00;;;;;15.44;63.70;101921.44;5082858;27;45871;-74
2021/09/28 06:43:24;;;;;;;;;0.00;0.00;;;;;15.39;63.68;101901.28;5083147;27;45269;-74
2021/09/28 06:45:49;;;;;;;;;2.00;2.00;;;;;15.55;63.11;101921.53;5082854;27;45278;-74
2021/09/28 06:48:16;;;;;;;;;0.75;0.50;;;;;15.49;63.60;101907.50;5082796;27;45527;-74
2021/09/28 06:50:42;;;;;;;;;0.00;0.00;;;;;15.54;63.25;101906.66;5081670;27;47779;-74
2021/09/28 06:53:07;;;;;;;;;0.00;0.00;;;;;15.49;63.51;101886.50;5082539;27;45317;-74
2021/09/28 06:55:35;;;;;;;;;1.50;1.00;;;;;15.73;63.37;101912.00;5082592;27;45302;-78
2021/09/28 06:58:01;;;;;;;;;1.00;1.00;;;;;15.71;63.38;101900.63;5083583;27;45310;-77
2021/09/28 07:00:26;;;;;;;;;1.00;1.00;;;;;15.75;62.89;101896.28;5082635;27;45610;-76
2021/09/28 07:02:51;;;;;;;;;0.00;0.00;;;;;15.76;62.64;101890.16;5055218;27;45448;-77
2021/09/28 07:05:18;;;;;;;;;1.00;1.00;;;;;15.81;62.33;101898.94;5070204;27;45274;-76
2021/09/28 07:07:43;;;;;;;;;0.00;0.00;;;;;15.68;62.72;101877.00;5070993;28;45239;-79
2021/09/28 07:10:09;;;;;;;;;2.00;0.00;;;;;15.85;62.38;101884.94;5066962;28;46604;-78
2021/09/28 07:12:35;;;;;;;;;0.00;0.00;;;;;16.01;62.79;101904.31;5070604;28;45671;-78
2021/09/28 07:15:02;;;;;;;;;1.50;1.00;;;;;16.02;62.62;101908.69;5068976;28;45590;-76
2021/09/28 07:17:27;;;;;;;;;0.00;0.00;;;;;16.00;62.20;101892.06;5072285;28;46426;-77
2021/09/28 07:19:52;;;;;;;;;0.25;0.25;;;;;16.08;62.18;101895.59;5065060;28;47355;-77
2021/09/28 07:22:18;;;;;;;;;0.00;0.00;;;;;16.12;61.98;101893.88;5059925;28;46070;-76
2021/09/28 07:24:44;;;;;;;;;0.00;0.00;;;;;16.30;61.77;101913.19;5071465;28;45497;-76
2021/09/28 07:27:09;;;;;;;;;1.00;0.50;;;;;16.01;61.65;101858.78;5070578;27;45472;-76
2021/09/28 07:29:34;;;;;;;;;1.50;0.00;;;;;16.31;61.03;101893.91;5066933;27;45462;-77
2021/09/28 07:32:00;;;;;;;;;1.00;1.00;;;;;16.50;60.96;101918.50;5066381;28;45321;-77
2021/09/28 07:34:25;;;;;;;;;0.00;0.00;;;;;16.36;60.63;101883.44;5072994;28;45462;-78
2021/09/28 07:36:51;;;;;;;;;0.00;0.00;;;;;16.48;60.33;101891.34;5068682;28;45837;-77
2021/09/28 07:39:16;;;;;;;;;2.25;1.00;;;;;16.59;60.31;101896.63;5069381;28;47072;-78
2021/09/28 07:41:42;;;;;;;;;0.00;0.00;;;;;16.75;60.23;101908.03;5071649;28;45185;-78
2021/09/28 07:44:07;;;;;;;;;0.00;0.00;;;;;16.66;59.59;101876.50;5068640;27;45237;-79
2021/09/28 07:46:33;;;;;;;;;0.00;0.00;;;;;16.84;58.99;101905.41;5073717;28;45331;-78
2021/09/28 07:48:58;;;;;;;;;0.00;0.00;;;;;16.62;59.17;101854.56;5071737;28;47757;-77
2021/09/28 07:51:23;;;;;;;;;0.00;0.00;;;;;16.99;58.60;101895.78;5064516;28;45405;-78
2021/09/28 07:53:49;;;;;;;;;0.00;0.00;;;;;16.90;59.13;101883.50;5069329;28;45489;-79
2021/09/28 07:56:18;;;;;;;;;1.00;0.00;;;;;17.06;59.30;101907.19;5066497;27;45601;-75
2021/09/28 07:58:43;;;;;;;;;0.00;0.00;;;;;16.97;58.23;101881.78;5068556;28;46597;-76
2021/09/28 08:01:08;;;;;;;;;0.00;0.00;;;;;16.91;58.56;101858.09;5066925;27;45392;-81
2021/09/28 08:03:34;;;;;;;;;0.00;0.00;;;;;16.87;58.37;101845.81;5065380;28;45696;-78
2021/09/28 08:05:59;;;;;;;;;0.00;0.00;;;;;17.13;58.40;101877.41;5065155;28;45713;-80
2021/09/28 08:08:24;;;;;;;;;1.25;1.00;;;;;17.32;58.09;101895.81;5079736;28;48211;-79
2021/09/28 08:10:50;;;;;;;;;0.00;0.00;;;;;17.21;57.25;101873.00;5072114;28;45340;-79
2021/09/28 08:13:16;;;;;;;;;0.00;0.00;;;;;17.25;57.25;101875.63;5070148;28;45367;-78
2021/09/28 08:15:41;;;;;;;;;0.75;0.00;;;;;17.40;57.08;101909.81;5067303;27;45300;-79
2021/09/28 08:18:07;;;;;;;;;0.00;0.00;;;;;17.43;57.13;101901.91;5068308;28;45351;-79
2021/09/28 08:20:32;;;;;;;;;0.50;0.50;;;;;17.33;57.15;101873.84;5068137;28;45864;-80
2021/09/28 08:22:59;;;;;;;;;0.00;0.00;;;;;17.60;57.38;101911.53;5067185;28;45239;-76
2021/09/28 08:25:35;;;;;;;;;2.25;2.25;;;;;17.46;57.86;101908.97;5061811;28;45181;-78
2021/09/28 08:30:44;;;;;;;;;2.25;1.25;;;;;17.32;58.36;101904.59;5062425;28;46829;-82
2021/09/28 08:33:10;;;;;;;;;0.50;0.00;;;;;17.30;58.57;101892.31;5066513;27;46560;-76
2021/09/28 08:35:35;;;;;;;;;0.75;0.25;;;;;17.54;58.45;101917.72;5072423;28;45298;-77
2021/09/28 08:38:01;;;;;;;;;1.50;1.00;;;;;17.66;58.39;101921.19;5076722;28;46651;-76
2021/09/28 08:40:26;;;;;;;;;0.00;0.00;;;;;17.56;57.20;101901.91;5082949;28;45363;-76
2021/09/28 08:42:55;;;;;;;;;0.50;0.50;;;;;17.42;57.30;101873.84;5081986;27;45317;-76
2021/09/28 08:45:20;;;;;;;;;1.75;0.25;;;;;17.71;57.49;101911.53;5062393;28;45568;-76
2021/09/28 08:47:46;;;;;;;;;0.00;0.00;;;;;17.71;57.39;101904.50;5063484;28;45224;-76
2021/09/28 08:50:21;;;;;;;;;0.00;0.00;;;;;17.81;57.45;101899.22;5063898;28;45216;-77
2021/09/28 08:52:49;;;;;;;;;0.00;0.00;;;;;17.95;57.01;101910.56;5063726;28;45393;-77
2021/09/28 08:55:14;;;;;;;;;2.75;0.00;;;;;18.09;56.32;101921.06;5072376;28;45519;-76
2021/09/28 08:57:43;;;;;;;;;1.00;1.00;;;;;18.19;55.57;101916.66;5065202;28;46703;-76
2021/09/28 09:00:24;;;;;;;;;0.75;0.75;;;;;18.29;56.25;101916.63;5078295;27;45519;-77
2021/09/28 09:02:50;;;;;;;;;0.00;0.00;;;;;18.17;55.68;101891.19;5083763;27;45302;-78
2021/09/28 09:05:17;;;;;;;;;0.25;0.25;;;;;18.22;55.67;101892.94;5064076;27;45454;-77
2021/09/28 09:07:43;;;;;;;;;0.50;0.25;;;;;18.40;54.64;101914.78;5081760;28;46154;-76
2021/09/28 09:10:10;;;;;;;;;0.00;0.00;;;;;18.21;54.40;101874.47;5080280;28;45936;-76
2021/09/28 09:12:42;;;;;;;;;0.00;0.00;;;;;18.26;54.37;101866.56;5070845;28;45394;-74
2021/09/28 09:15:19;;;;;;;;;0.00;0.00;;;;;18.53;54.64;101914.75;5071089;28;45362;-76
2021/09/28 09:17:51;;;;;;;;;0.00;0.00;;;;;18.56;54.54;101920.00;5089058;27;48170;-76
2021/09/28 09:20:40;;;;;;;;;0.00;0.00;;;;;18.43;53.34;101884.91;5081265;28;45477;-78
2021/09/28 09:23:14;;;;;;;;;0.00;0.00;;;;;18.66;52.79;101913.78;5082674;28;45502;-75
2021/09/28 09:25:40;;;;;;;;;0.25;0.25;;;;;18.49;52.65;101885.75;5063887;28;45355;-77
2021/09/28 09:28:23;;;;;;;;;0.00;0.00;;;;;18.62;52.93;101888.28;5076348;27;45414;-77
2021/09/28 09:30:48;;;;;;;;;0.00;0.00;;;;;18.50;52.56;101860.28;5079757;28;45361;-76
2021/09/28 09:33:21;;;;;;;;;0.75;0.00;;;;;18.76;52.41;101887.31;5073723;27;45374;-75
2021/09/28 09:35:57;;;;;;;;;0.00;0.00;;;;;18.83;52.38;101867.91;5071102;28;45447;-75
2021/09/28 09:38:22;;;;;;;;;3.00;1.00;;;;;18.92;51.66;101878.41;5090179;27;47163;-75
2021/09/28 09:40:48;;;;;;;;;0.00;0.00;;;;;18.86;51.76;101867.91;5083693;27;45310;-77
2021/09/28 09:43:17;;;;;;;;;1.00;0.00;;;;;18.92;51.81;101866.97;5082671;28;45402;-78
2021/09/28 09:45:43;;;;;;;;;0.75;0.00;;;;;18.74;51.62;101826.66;5078029;27;45408;-77
2021/09/28 09:48:21;;;;;;;;;0.00;0.00;;;;;19.12;51.13;101870.34;5072496;28;48602;-76
2021/09/28 09:51:02;;;;;;;;;0.00;0.00;;;;;19.23;51.40;101880.81;5062630;28;45397;-78
2021/09/28 09:53:27;;;;;;;;;0.00;0.00;;;;;19.12;50.70;101838.66;5063503;28;45282;-75
2021/09/28 09:55:53;;;;;;;;;0.00;0.00;;;;;19.02;49.92;101822.94;5063040;28;45552;-77
2021/09/28 09:58:20;;;;;;;;;0.00;0.00;;;;;19.04;50.05;101824.66;5062861;28;47112;-76
2021/09/28 10:00:46;;;;;;;;;0.00;0.00;;;;;19.13;50.19;101834.28;5065138;28;45255;-76
2021/09/28 10:03:11;;;;;;;;;0.00;0.00;;;;;19.18;49.83;101828.97;5075422;28;45476;-76
2021/09/28 10:05:37;;;;;;;;;0.00;0.00;;;;;19.33;49.17;101849.03;5062494;28;45396;-78
2021/09/28 10:08:08;;;;;;;;;0.00;0.00;;;;;19.16;49.70;101817.53;5063235;28;46334;-78
2021/09/28 10:10:34;;;;;;;;;0.00;0.00;;;;;18.52;48.78;101705.56;5071026;28;45414;-83
2021/09/28 10:13:00;;;;;;;;;0.00;0.00;;;;;19.36;48.42;101854.28;5083435;27;45378;-78
2021/09/28 10:15:34;;;;;;;;;0.00;0.00;;;;;19.43;48.95;101860.38;5077303;28;45264;-79
2021/09/28 10:18:00;;;;;;;;;0.00;0.00;;;;;19.21;48.69;101831.56;5081708;28;46948;-76
2021/09/28 10:20:31;;;;;;;;;0.00;0.00;;;;;19.40;49.20;101857.75;5082753;28;45299;-76
2021/09/28 10:22:56;;;;;;;;;0.00;0.00;;;;;19.39;48.52;101851.63;5071642;27;45300;-77
2021/09/28 10:25:34;;;;;;;;;1.00;0.00;;;;;19.38;48.46;101857.78;5080859;28;45264;-75
2021/09/28 10:28:05;;;;;;;;;0.00;0.00;;;;;19.33;48.22;101859.59;5073122;28;45229;-75
2021/09/28 10:30:31;;;;;;;;;0.00;0.00;;;;;19.37;48.41;101862.19;5065410;28;45335;-75
2021/09/28 10:32:57;;;;;;;;;0.00;0.00;;;;;19.44;48.06;101852.44;5071402;28;45319;-77
2021/09/28 10:35:24;;;;;;;;;0.75;0.00;;;;;19.45;48.72;101848.03;5084263;27;45507;-77
2021/09/28 10:37:53;;;;;;;;;0.00;0.00;;;;;19.46;48.51;101860.34;5081460;28;45394;-74
2021/09/28 10:40:21;;;;;;;;;0.00;0.00;;;;;19.43;48.62;101853.34;5072432;28;46214;-74
2021/09/28 10:42:51;;;;;;;;;0.00;0.00;;;;;19.43;48.54;101860.38;5061010;28;45348;-75
2021/09/28 10:45:39;;;;;;;;;0.00;0.00;;;;;19.45;47.66;101851.53;5081787;28;45384;-75
2021/09/28 10:48:23;;;;;;;;;0.00;0.00;;;;;19.45;47.39;101859.47;5075542;28;47371;-76
2021/09/28 10:51:07;;;;;;;;;0.00;0.00;;;;;19.26;47.68;101856.13;5082099;28;45307;-75
2021/09/28 10:53:35;;;;;;;;;0.75;0.00;;;;;19.06;47.51;101836.09;5082329;28;45292;-75
2021/09/28 10:56:04;;;;;;;;;0.00;0.00;;;;;18.98;48.12;101838.78;5081334;27;45401;-75
2021/09/28 10:58:30;;;;;;;;;0.00;0.00;;;;;18.95;46.89;101859.03;5082472;27;46921;-75
2021/09/28 11:00:55;;;;;;;;;0.00;0.00;;;;;18.82;47.57;101853.88;5082360;27;45297;-75
2021/09/28 11:03:55;;;;;;;;;0.00;0.00;;;;;18.58;48.15;101821.53;5080619;27;45334;-79
2021/09/28 11:06:49;;;;;;;;;0.00;0.00;;;;;18.71;47.91;101840.75;5080830;27;45288;-77
2021/09/28 11:09:17;;;;;;;;;0.00;0.00;;;;;18.57;47.80;101811.00;5071988;28;48534;-78
2021/09/28 11:11:46;;;;;;;;;0.00;0.00;;;;;18.65;46.65;101819.72;5070625;28;45311;-75
2021/09/28 11:14:12;;;;;;;;;0.00;0.00;;;;;18.69;48.00;101817.94;5079319;28;45433;-76
2021/09/28 11:16:42;;;;;;;;;0.00;0.00;;;;;18.69;45.78;101800.34;5069184;28;45536;-76
2021/09/28 11:19:08;;;;;;;;;0.00;0.00;;;;;18.78;46.79;101811.72;5070544;28;45906;-76
2021/09/28 11:21:36;;;;;;;;;1.00;0.00;;;;;18.99;46.97;101829.13;5072151;28;45303;-75
2021/09/28 11:24:02;;;;;;;;;1.00;0.00;;;;;18.99;47.17;101808.88;5062281;28;45361;-78
2021/09/28 11:26:32;;;;;;;;;0.00;0.00;;;;;19.10;46.29;101821.09;5062631;28;45521;-77